Time;durP1;ratioP1;P1;durP2;ratioP2;P2;SDS_P1;SDS_P2;PMS_P1;PMS_P2;Temp;Humidity;BMP_temperature;BMP_pressure;BME280_temperature;BME280_humidity;BME280_pressure;Samples;Min_cycle;Max_cycle;Signal;HPM_P1;HPM_P2
2021/09/09 00:01:41;;;;;;;23.05;12.28;;;;;;;9.25;96.68;100912.98;1807658;79;21544;-78
2021/09/09 00:04:09;;;;;;;17.17;9.33;;;;;;;9.25;96.92;100910.35;1807973;79;21563;-76
2021/09/09 00:06:38;;;;;;;29.52;13.35;;;;;;;9.26;97.02;100911.21;1807585;79;21026;-76
2021/09/09 00:09:07;;;;;;;27.75;13.03;;;;;;;9.24;97.02;100904.66;1807839;79;21069;-77
2021/09/09 00:11:35;;;;;;;19.30;10.48;;;;;;;9.24;97.08;100911.23;1807425;79;21604;-78
2021/09/09 00:14:01;;;;;;;23.45;13.05;;;;;;;9.23;97.09;100910.83;1807419;78;21481;-77
2021/09/09 00:16:31;;;;;;;29.57;12.58;;;;;;;9.23;97.47;100909.52;1807498;79;21029;-78
2021/09/09 00:18:59;;;;;;;24.45;11.35;;;;;;;9.21;97.54;100911.30;1807768;79;21056;-77
2021/09/09 00:21:28;;;;;;;32.40;14.55;;;;;;;9.16;97.62;100907.90;1807286;79;21038;-77
2021/09/09 00:23:58;;;;;;;19.70;10.78;;;;;;;9.21;98.00;100916.10;1807581;79;21090;-77
2021/09/09 00:26:24;;;;;;;27.25;14.05;;;;;;;9.21;98.00;100916.56;1807531;79;20982;-78
2021/09/09 00:28:52;;;;;;;26.70;14.23;;;;;;;9.22;98.07;100920.91;1807459;79;21598;-76
2021/09/09 00:31:19;;;;;;;32.15;13.28;;;;;;;9.23;98.16;100920.02;1807495;79;21065;-77
2021/09/09 00:33:48;;;;;;;31.80;15.45;;;;;;;9.23;98.04;100912.14;1807310;79;21096;-77
2021/09/09 00:36:15;;;;;;;30.50;14.47;;;;;;;9.22;98.15;100921.80;1807462;79;21504;-76
2021/09/09 00:38:42;;;;;;;30.12;15.32;;;;;;;9.21;98.25;100920.50;1807258;79;20986;-78
2021/09/09 00:41:08;;;;;;;39.88;17.32;;;;;;;9.20;98.42;100918.75;1807689;79;21060;-77
2021/09/09 00:43:35;;;;;;;37.13;17.48;;;;;;;9.19;98.47;100917.03;1807416;79;21536;-78
2021/09/09 00:46:02;;;;;;;35.25;17.00;;;;;;;9.19;98.51;100926.23;1807356;79;21041;-78
2021/09/09 00:48:32;;;;;;;27.00;14.75;;;;;;;9.17;98.70;100913.11;1807383;79;21138;-78
2021/09/09 00:51:00;;;;;;;26.07;12.10;;;;;;;9.19;98.86;100911.77;1807477;79;21049;-78
2021/09/09 00:53:27;;;;;;;33.92;16.85;;;;;;;9.19;98.91;100914.41;1807127;79;21048;-78
2021/09/09 00:55:54;;;;;;;35.03;14.35;;;;;;;9.19;98.99;100910.45;1794133;79;21025;-79
2021/09/09 00:58:21;;;;;;;28.45;14.58;;;;;;;9.17;98.62;100917.50;1785871;80;21027;-79
2021/09/09 01:00:49;;;;;;;32.03;15.55;;;;;;;9.13;98.45;100909.25;1786394;80;21622;-78
2021/09/09 01:03:16;;;;;;;28.80;14.70;;;;;;;9.13;98.47;100913.19;1786202;80;21025;-78
2021/09/09 01:05:43;;;;;;;37.70;17.02;;;;;;;9.11;98.31;100914.98;1786288;80;21271;-79
2021/09/09 01:08:09;;;;;;;22.07;12.73;;;;;;;9.11;98.51;100916.30;1789143;80;20966;-77
2021/09/09 01:10:36;;;;;;;27.15;15.30;;;;;;;9.08;98.62;100920.30;1789560;80;20990;-78
2021/09/09 01:13:09;;;;;;;26.97;15.23;;;;;;;9.06;99.37;100925.57;1789272;80;21120;-79
2021/09/09 01:15:43;;;;;;;25.70;14.30;;;;;;;9.02;99.74;100922.15;1777684;80;22039;-78
2021/09/09 01:18:14;;;;;;;33.80;16.82;;;;;;;9.02;99.86;100924.78;1772010;80;20935;-78
2021/09/09 01:20:44;;;;;;;34.63;16.15;;;;;;;8.99;100.00;100919.56;1771739;81;21108;-78
2021/09/09 01:23:11;;;;;;;26.10;12.98;;;;;;;8.98;99.94;100919.61;1771810;80;21379;-77
2021/09/09 01:25:37;;;;;;;36.77;16.65;;;;;;;8.95;99.85;100920.53;1771838;81;21125;-78
2021/09/09 01:28:05;;;;;;;28.15;13.40;;;;;;;8.95;100.00;100923.16;1771527;80;21025;-77
2021/09/09 01:30:32;;;;;;;35.85;16.52;;;;;;;8.94;100.00;100918.78;1771484;80;22180;-77
2021/09/09 01:33:03;;;;;;;36.93;17.02;;;;;;;8.94;100.00;100913.53;1771767;81;20999;-78
2021/09/09 01:35:30;;;;;;;30.15;17.37;;;;;;;8.94;100.00;100913.53;1772194;81;21022;-78
2021/09/09 01:37:59;;;;;;;32.73;17.15;;;;;;;8.93;100.00;100910.49;1771557;81;21087;-78
2021/09/09 01:40:31;;;;;;;23.25;13.13;;;;;;;8.92;100.00;100910.05;1771380;81;21089;-76
2021/09/09 01:42:59;;;;;;;26.73;14.30;;;;;;;8.92;100.00;100908.73;1770713;80;21600;-75
2021/09/09 01:45:26;;;;;;;35.68;17.20;;;;;;;8.94;100.00;100904.78;1771928;79;21046;-78
2021/09/09 01:47:53;;;;;;;28.45;12.90;;;;;;;8.94;100.00;100909.58;1780134;80;21092;-77
2021/09/09 01:50:21;;;;;;;38.80;18.12;;;;;;;8.95;100.00;100907.39;1780465;80;21202;-78
2021/09/09 01:52:48;;;;;;;40.05;16.05;;;;;;;8.95;100.00;100907.39;1780093;80;21599;-78
2021/09/09 01:55:16;;;;;;;34.63;16.07;;;;;;;8.96;100.00;100906.48;1777002;80;21101;-79
2021/09/09 01:57:45;;;;;;;37.78;16.95;;;;;;;8.94;100.00;100900.84;1771464;81;21555;-78
2021/09/09 02:00:14;;;;;;;31.93;15.23;;;;;;;8.94;100.00;100905.64;1771884;81;21046;-78
2021/09/09 02:02:41;;;;;;;30.62;15.80;;;;;;;8.92;100.00;100903.94;1771928;81;21298;-78
2021/09/09 02:05:09;;;;;;;38.58;16.50;;;;;;;8.89;100.00;100902.23;1773442;81;21018;-78
2021/09/09 02:07:38;;;;;;;27.32;13.98;;;;;;;8.87;100.00;100900.09;1773599;81;21003;-77
2021/09/09 02:10:07;;;;;;;35.15;17.98;;;;;;;8.87;100.00;100897.91;1774973;79;21002;-77
2021/09/09 02:12:36;;;;;;;30.90;16.80;;;;;;;8.87;100.00;100898.77;1775635;79;21003;-77
2021/09/09 02:15:06;;;;;;;32.45;16.02;;;;;;;8.86;100.00;100898.36;1777236;79;21017;-77
2021/09/09 02:17:34;;;;;;;33.40;18.02;;;;;;;8.87;100.00;100897.91;1786513;80;21048;-75
2021/09/09 02:20:04;;;;;;;27.02;13.05;;;;;;;8.85;100.00;100893.98;1786514;80;21009;-77
2021/09/09 02:22:31;;;;;;;29.42;16.62;;;;;;;8.86;100.00;100893.11;1786045;80;20981;-78
2021/09/09 02:24:58;;;;;;;29.45;16.32;;;;;;;8.84;100.00;100888.33;1786315;80;21532;-78
2021/09/09 02:29:44;;;;;;;32.38;17.35;;;;;;;8.86;100.00;100891.80;1796956;79;28192;-78
2021/09/09 02:32:14;;;;;;;36.30;16.27;;;;;;;8.79;100.00;100898.05;1756455;80;21084;-79
2021/09/09 02:34:44;;;;;;;;;;;;;;;8.76;100.00;100894.14;1759686;81;21133;-79
2021/09/09 02:37:11;;;;;;;35.78;16.90;;;;;;;8.74;100.00;100894.62;1756843;81;20187;-77
2021/09/09 02:39:42;;;;;;;26.20;14.87;;;;;;;8.73;100.00;100896.84;1756784;81;21565;-78
2021/09/09 02:42:10;;;;;;;39.55;18.10;;;;;;;8.71;100.00;100898.16;1756605;81;21059;-77
2021/09/09 02:44:39;;;;;;;37.30;16.00;;;;;;;8.71;100.00;100895.99;1756599;81;21600;-78
2021/09/09 02:47:06;;;;;;;30.70;16.55;;;;;;;8.71;100.00;100902.56;1756374;81;21816;-79
2021/09/09 02:49:35;;;;;;;38.25;17.62;;;;;;;8.71;100.00;100897.31;1756752;81;21524;-78
2021/09/09 02:52:03;;;;;;;28.60;17.45;;;;;;;8.72;100.00;100900.34;1753611;81;21057;-78
2021/09/09 02:54:30;;;;;;;32.55;16.97;;;;;;;8.71;100.00;100895.99;1748331;82;21061;-77
2021/09/09 02:56:57;;;;;;;31.33;17.77;;;;;;;8.71;100.00;100901.25;1748449;82;21006;-78
2021/09/09 02:59:25;;;;;;;26.42;13.88;;;;;;;8.70;100.00;100903.02;1748391;82;21130;-78
2021/09/09 03:01:53;;;;;;;35.60;17.67;;;;;;;8.63;100.00;100888.68;1748045;82;21566;-78
2021/09/09 03:04:20;;;;;;;27.67;15.43;;;;;;;8.71;100.00;100906.50;1748496;82;21022;-78
2021/09/09 03:06:47;;;;;;;27.85;14.68;;;;;;;8.69;100.00;100904.34;1748561;82;21057;-77
2021/09/09 03:09:14;;;;;;;31.85;17.50;;;;;;;8.69;100.00;100899.95;1748506;82;21572;-76
2021/09/09 03:11:43;;;;;;;23.77;14.00;;;;;;;8.68;100.00;100897.38;1748375;82;22046;-79
2021/09/09 03:14:12;;;;;;;39.23;19.20;;;;;;;8.67;100.00;100902.19;1719042;82;21085;-77
2021/09/09 03:16:40;;;;;;;34.90;18.15;;;;;;;8.65;100.00;100896.09;1748197;82;20994;-78
2021/09/09 03:19:07;;;;;;;31.45;16.05;;;;;;;8.65;100.00;100900.02;1748520;82;21049;-78
2021/09/09 03:21:34;;;;;;;36.80;17.57;;;;;;;8.64;100.00;100898.30;1748623;81;22117;-79
2021/09/09 03:24:04;;;;;;;27.27;14.87;;;;;;;8.64;100.00;100901.80;1748588;82;21113;-78
2021/09/09 03:26:31;;;;;;;34.95;18.42;;;;;;;8.64;100.00;100903.56;1748606;81;21069;-78
2021/09/09 03:28:59;;;;;;;30.92;17.23;;;;;;;8.63;100.00;100900.49;1740692;81;20998;-78
2021/09/09 03:31:27;;;;;;;37.53;16.25;;;;;;;8.64;100.00;100903.11;1735610;82;21081;-79
2021/09/09 03:33:54;;;;;;;37.28;19.35;;;;;;;8.65;100.00;100902.66;1735474;82;21135;-79
2021/09/09 03:36:21;;;;;;;27.70;15.05;;;;;;;8.66;100.00;100903.95;1735425;82;21153;-78
2021/09/09 03:38:49;;;;;;;31.27;16.05;;;;;;;8.67;100.00;100901.73;1735560;82;21003;-78
2021/09/09 03:41:15;;;;;;;36.38;18.95;;;;;;;8.68;100.00;100903.48;1735367;82;21130;-77
2021/09/09 03:43:42;;;;;;;25.65;14.10;;;;;;;8.68;100.00;100907.87;1734817;82;21037;-78
2021/09/09 03:46:09;;;;;;;34.92;19.73;;;;;;;8.68;100.00;100907.87;1734817;82;22141;-79
2021/09/09 03:48:36;;;;;;;30.75;16.82;;;;;;;8.71;100.00;100910.44;1734620;82;21539;-78
2021/09/09 03:51:02;;;;;;;29.05;15.98;;;;;;;8.73;100.00;100912.59;1734747;82;21604;-78
2021/09/09 03:53:30;;;;;;;35.55;17.23;;;;;;;8.77;100.00;100916.45;1734826;82;21062;-79
2021/09/09 03:55:57;;;;;;;26.27;14.25;;;;;;;8.81;100.00;100920.77;1716032;82;21256;-78
2021/09/09 03:58:24;;;;;;;35.25;18.27;;;;;;;8.82;100.00;100919.00;1705508;83;21614;-80
2021/09/09 04:00:52;;;;;;;38.63;19.30;;;;;;;8.89;100.00;100919.77;1705338;84;21011;-76
2021/09/09 04:03:22;;;;;;;31.17;15.30;;;;;;;9.18;100.00;100914.00;1705372;84;21031;-79
2021/09/09 04:05:52;;;;;;;38.73;17.48;;;;;;;9.57;100.00;100916.72;1705568;83;21132;-76
2021/09/09 04:08:23;;;;;;;30.97;16.05;;;;;;;10.03;100.00;100911.36;1705464;83;21098;-79
2021/09/09 04:10:49;;;;;;;39.63;19.20;;;;;;;10.50;100.00;100907.23;1705416;84;21006;-79
2021/09/09 04:13:17;;;;;;;33.35;18.02;;;;;;;10.95;100.00;100908.31;1705328;84;21133;-80
2021/09/09 04:15:44;;;;;;;36.45;17.50;;;;;;;11.42;99.07;100904.82;1685780;84;21054;-79
2021/09/09 04:18:12;;;;;;;35.03;18.12;;;;;;;11.85;96.25;100908.01;1704163;84;21552;-78
2021/09/09 04:20:41;;;;;;;47.62;18.35;;;;;;;12.24;93.84;100907.27;1705349;84;21018;-80
2021/09/09 04:23:08;;;;;;;37.15;18.25;;;;;;;12.64;92.48;100899.36;1705589;84;21117;-80
2021/09/09 04:25:35;;;;;;;32.83;17.45;;;;;;;13.06;90.61;100900.59;1705742;83;21060;-78
2021/09/09 04:28:03;;;;;;;31.95;18.17;;;;;;;13.47;88.25;100897.81;1708099;83;21108;-77
2021/09/09 04:30:30;;;;;;;43.15;19.05;;;;;;;13.89;85.34;100898.44;1717892;82;20864;-79
2021/09/09 04:32:56;;;;;;;37.67;19.73;;;;;;;14.28;83.51;100896.00;1716852;83;21057;-78
2021/09/09 04:35:25;;;;;;;37.67;20.85;;;;;;;14.65;81.70;100894.99;1714733;83;21479;-78
2021/09/09 04:37:53;;;;;;;32.60;21.05;;;;;;;15.03;80.31;100889.86;1713516;83;21175;-78
2021/09/09 04:40:20;;;;;;;39.42;21.33;;;;;;;15.39;78.49;100886.50;1713294;83;21160;-79
2021/09/09 04:42:47;;;;;;;39.85;21.95;;;;;;;15.76;77.02;100891.05;1713184;83;22176;-79
2021/09/09 04:45:15;;;;;;;43.10;21.93;;;;;;;16.14;75.23;100889.20;1713259;83;21097;-79
2021/09/09 04:47:43;;;;;;;33.80;20.35;;;;;;;16.54;73.47;100889.05;1713067;83;21048;-79
2021/09/09 04:50:12;;;;;;;48.15;23.00;;;;;;;16.90;71.99;100886.84;1713184;83;21081;-80
2021/09/09 04:52:40;;;;;;;40.50;21.70;;;;;;;17.27;70.05;100889.77;1712980;83;21592;-78
2021/09/09 04:55:08;;;;;;;42.85;20.70;;;;;;;17.64;68.82;100885.13;1722286;82;22163;-79
2021/09/09 04:57:35;;;;;;;49.05;22.20;;;;;;;17.96;67.03;100878.54;1743149;82;21618;-79
2021/09/09 05:00:02;;;;;;;46.40;22.37;;;;;;;18.34;65.42;100875.04;1743267;82;21045;-79
2021/09/09 05:02:34;;;;;;;47.35;22.07;;;;;;;18.60;63.32;100884.18;1742841;82;21950;-79
2021/09/09 05:05:02;;;;;;;46.30;22.65;;;;;;;18.82;63.10;100875.81;1743026;82;21009;-79
2021/09/09 05:07:33;;;;;;;38.73;22.60;;;;;;;18.89;62.45;100870.97;1742771;82;21543;-80
2021/09/09 05:10:04;;;;;;;43.85;22.82;;;;;;;19.12;61.59;100871.37;1714053;82;21644;-79
2021/09/09 05:12:31;;;;;;;39.88;21.48;;;;;;;19.44;60.60;100870.27;1742914;82;21105;-78
2021/09/09 05:15:00;;;;;;;41.10;21.23;;;;;;;19.73;59.45;100872.94;1714192;82;21093;-77
2021/09/09 05:17:29;;;;;;;42.95;22.35;;;;;;;20.00;58.54;100869.46;1742800;82;21577;-79
2021/09/09 05:19:56;;;;;;;50.58;23.92;;;;;;;20.26;58.26;100869.09;1742826;82;21049;-78
2021/09/09 05:22:22;;;;;;;51.33;24.77;;;;;;;20.61;57.45;100873.94;1742955;82;20998;-78
2021/09/09 05:24:50;;;;;;;52.45;24.30;;;;;;;20.91;56.66;100867.86;1742883;82;21081;-78
2021/09/09 05:27:18;;;;;;;42.73;21.23;;;;;;;21.17;56.09;100870.55;1742704;82;21130;-79
2021/09/09 05:29:46;;;;;;;49.15;24.35;;;;;;;21.44;55.23;100865.11;1737305;81;21537;-79
2021/09/09 05:32:14;;;;;;;43.92;22.07;;;;;;;21.85;54.43;100855.89;1734654;82;21011;-78
2021/09/09 05:34:41;;;;;;;41.73;22.62;;;;;;;22.22;52.48;100863.94;1735081;82;21074;-78
2021/09/09 05:37:11;;;;;;;45.45;24.50;;;;;;;22.64;52.40;100857.68;1734985;82;21014;-78
2021/09/09 05:39:41;;;;;;;39.38;21.37;;;;;;;23.03;50.84;100852.94;1734943;82;21148;-77
2021/09/09 05:42:08;;;;;;;48.60;23.18;;;;;;;23.36;49.59;100851.25;1735037;82;21058;-76
2021/09/09 05:44:37;;;;;;;39.48;21.48;;;;;;;23.70;48.35;100851.24;1734492;82;21494;-76
2021/09/09 05:47:04;;;;;;;36.42;19.42;;;;;;;23.89;47.34;100856.86;1734490;82;21069;-78
2021/09/09 05:49:33;;;;;;;35.68;20.90;;;;;;;24.16;45.40;100852.89;1734500;82;21482;-79
2021/09/09 05:52:05;;;;;;;28.32;17.98;;;;;;;24.43;44.11;100850.59;1734511;82;21050;-78
2021/09/09 05:54:33;;;;;;;29.12;20.10;;;;;;;24.63;42.92;100854.80;1732965;82;21097;-78
2021/09/09 05:57:01;;;;;;;31.12;19.37;;;;;;;24.78;42.65;100852.16;1705813;84;21097;-77
2021/09/09 05:59:27;;;;;;;29.87;18.70;;;;;;;24.95;42.62;100852.55;1706050;84;21114;-77
2021/09/09 06:01:55;;;;;;;32.00;19.95;;;;;;;25.01;41.38;100847.98;1706011;84;21003;-78
2021/09/09 06:04:23;;;;;;;26.90;17.95;;;;;;;25.17;41.65;100842.97;1705318;83;21121;-78
2021/09/09 06:06:50;;;;;;;30.97;18.55;;;;;;;25.18;40.87;100841.12;1705172;84;21556;-78
2021/09/09 06:09:19;;;;;;;30.90;18.57;;;;;;;25.32;41.32;100841.63;1705636;84;21034;-78
2021/09/09 06:11:47;;;;;;;30.35;17.87;;;;;;;25.56;40.98;100829.69;1705241;84;21050;-77
2021/09/09 06:14:15;;;;;;;27.22;18.12;;;;;;;25.95;40.29;100829.78;1704864;84;21117;-78
2021/09/09 06:16:46;;;;;;;26.02;17.65;;;;;;;26.42;39.65;100834.03;1705123;84;21733;-77
2021/09/09 06:19:14;;;;;;;26.95;17.55;;;;;;;26.83;38.55;100827.98;1705013;84;21061;-77
2021/09/09 06:21:43;;;;;;;24.87;18.10;;;;;;;27.09;37.87;100830.05;1705213;84;21054;-76
2021/09/09 06:24:12;;;;;;;25.40;17.32;;;;;;;27.20;36.56;100829.90;1705411;84;21168;-79
2021/09/09 06:26:41;;;;;;;30.65;17.87;;;;;;;27.14;36.36;100829.09;1705552;84;21053;-78
2021/09/09 06:29:09;;;;;;;24.32;17.40;;;;;;;27.25;36.35;100830.30;1705308;83;21192;-78
2021/09/09 06:31:38;;;;;;;24.92;16.35;;;;;;;27.44;36.38;100827.17;1705262;84;21050;-79
2021/09/09 06:34:05;;;;;;;24.75;16.85;;;;;;;27.88;35.85;100832.79;1705116;84;21057;-77
2021/09/09 06:36:31;;;;;;;30.27;17.82;;;;;;;28.24;34.97;100833.17;1705131;84;21071;-77
2021/09/09 06:38:59;;;;;;;23.85;16.40;;;;;;;28.37;33.88;100831.95;1705028;84;21034;-77
2021/09/09 06:41:26;;;;;;;26.57;16.93;;;;;;;28.44;33.86;100831.16;1705253;84;21144;-77
2021/09/09 06:43:53;;;;;;;26.90;16.95;;;;;;;28.53;32.85;100840.25;1704999;84;21085;-79
2021/09/09 06:46:20;;;;;;;28.73;16.80;;;;;;;28.54;33.25;100841.09;1705216;84;21101;-78
2021/09/09 06:48:49;;;;;;;29.52;15.95;;;;;;;28.61;33.29;100841.66;1686459;84;21210;-78
2021/09/09 06:51:19;;;;;;;22.82;15.53;;;;;;;28.85;32.65;100847.78;1709293;83;21043;-75
2021/09/09 06:53:46;;;;;;;25.27;17.12;;;;;;;29.13;32.21;100842.75;1707625;83;21581;-79
2021/09/09 06:56:15;;;;;;;25.02;16.15;;;;;;;29.41;31.93;100840.17;1706539;83;21105;-79
2021/09/09 06:58:43;;;;;;;23.55;16.05;;;;;;;29.68;31.30;100837.78;1705082;84;20995;-79
2021/09/09 07:01:11;;;;;;;25.75;16.70;;;;;;;30.03;31.25;100839.07;1705051;84;21057;-80
2021/09/09 07:03:38;;;;;;;21.85;13.85;;;;;;;30.30;30.56;100837.96;1705346;84;21007;-78
2021/09/09 07:06:05;;;;;;;27.75;15.18;;;;;;;30.36;29.89;100840.50;1705177;83;22039;-78
2021/09/09 07:08:33;;;;;;;27.82;14.78;;;;;;;30.29;29.69;100842.52;1705249;84;21085;-80
2021/09/09 07:11:02;;;;;;;25.02;16.20;;;;;;;30.22;29.85;100842.83;1704988;83;21132;-79
2021/09/09 07:13:29;;;;;;;27.10;15.75;;;;;;;30.38;30.40;100845.26;1705017;84;20984;-79
2021/09/09 07:15:58;;;;;;;26.60;15.50;;;;;;;30.59;30.07;100845.59;1705210;84;21307;-78
2021/09/09 07:18:26;;;;;;;23.77;15.13;;;;;;;30.90;29.36;100842.22;1704754;83;21723;-76
2021/09/09 07:20:54;;;;;;;29.12;14.70;;;;;;;31.24;28.98;100843.83;1705044;84;21992;-78
2021/09/09 07:23:20;;;;;;;23.07;13.50;;;;;;;31.50;28.38;100839.02;1705189;84;21552;-78
2021/09/09 07:25:50;;;;;;;21.05;13.53;;;;;;;31.60;27.66;100840.16;1705188;83;21524;-78
2021/09/09 07:28:18;;;;;;;23.98;14.43;;;;;;;31.65;28.04;100840.47;1705112;84;21068;-78
2021/09/09 07:30:44;;;;;;;28.98;15.10;;;;;;;31.86;27.62;100849.38;1705047;83;21098;-78
2021/09/09 07:33:11;;;;;;;25.00;14.33;;;;;;;31.91;27.21;100846.99;1704718;84;21045;-78
2021/09/09 07:35:40;;;;;;;24.18;14.25;;;;;;;31.83;27.81;100846.19;1705049;84;21093;-75
2021/09/09 07:38:08;;;;;;;53.68;17.25;;;;;;;31.69;27.58;100847.78;1705155;84;21525;-78
2021/09/09 07:40:35;;;;;;;30.77;13.68;;;;;;;31.65;28.12;100845.08;1705205;84;21580;-78
2021/09/09 07:43:02;;;;;;;21.50;12.33;;;;;;;31.69;27.29;100836.89;1684805;84;22271;-78
2021/09/09 07:45:31;;;;;;;20.48;11.93;;;;;;;31.76;26.93;100844.69;1705190;84;21062;-78
2021/09/09 07:48:00;;;;;;;22.27;12.30;;;;;;;31.85;27.24;100842.25;1705150;84;21085;-78
2021/09/09 07:50:27;;;;;;;25.32;12.53;;;;;;;32.23;27.02;100845.09;1704988;84;22321;-79
2021/09/09 07:52:55;;;;;;;17.85;11.38;;;;;;;32.76;26.44;100851.53;1705328;84;21037;-79
2021/09/09 07:55:22;;;;;;;15.83;11.22;;;;;;;33.28;25.07;100850.34;1716819;82;21548;-77
2021/09/09 07:57:49;;;;;;;16.25;11.83;;;;;;;33.65;24.76;100845.30;1734385;82;21540;-78
2021/09/09 08:00:17;;;;;;;19.52;11.25;;;;;;;34.03;24.31;100843.24;1734431;82;21069;-78
2021/09/09 08:02:44;;;;;;;18.37;11.43;;;;;;;33.92;23.98;100843.74;1734395;82;21230;-79
2021/09/09 08:05:12;;;;;;;20.17;11.50;;;;;;;33.90;24.13;100846.34;1734588;82;21046;-77
2021/09/09 08:07:41;;;;;;;19.03;11.63;;;;;;;33.72;24.62;100837.20;1734810;82;21165;-77
2021/09/09 08:10:11;;;;;;;14.18;10.32;;;;;;;33.72;24.62;100837.20;1734443;82;21453;-78
2021/09/09 08:12:37;;;;;;;16.02;10.60;;;;;;;33.95;23.40;100843.34;1734770;82;21584;-77
2021/09/09 08:15:07;;;;;;;17.55;9.85;;;;;;;33.93;23.07;100835.86;1734650;82;21066;-77
2021/09/09 08:17:34;;;;;;;32.93;11.08;;;;;;;34.09;23.31;100839.41;1734811;82;21054;-77
2021/09/09 08:20:03;;;;;;;27.48;11.18;;;;;;;34.29;22.21;100837.75;1734513;82;21226;-79
2021/09/09 08:22:33;;;;;;;18.82;10.80;;;;;;;33.89;22.93;100838.67;1734703;82;21038;-77
2021/09/09 08:25:02;;;;;;;20.72;10.18;;;;;;;33.76;23.40;100846.19;1734341;82;21125;-76
2021/09/09 08:27:31;;;;;;;23.75;11.15;;;;;;;33.70;22.84;100842.84;1734701;82;21065;-78
2021/09/09 08:29:58;;;;;;;15.60;10.55;;;;;;;33.37;23.35;100843.23;1734640;82;21006;-76
2021/09/09 08:32:26;;;;;;;14.13;9.58;;;;;;;33.37;23.78;100839.66;1734597;82;21166;-77
2021/09/09 08:34:56;;;;;;;15.15;9.73;;;;;;;33.61;23.12;100840.77;1734738;82;20995;-79
2021/09/09 08:37:22;;;;;;;14.83;9.85;;;;;;;33.52;23.28;100840.51;1735150;82;21081;-76
2021/09/09 08:39:49;;;;;;;14.50;9.18;;;;;;;33.54;23.23;100838.41;1734876;82;21018;-77
2021/09/09 08:42:17;;;;;;;14.23;9.78;;;;;;;33.52;23.07;100838.27;1734610;82;21105;-78
2021/09/09 08:44:45;;;;;;;16.25;9.38;;;;;;;33.26;23.39;100834.67;1734488;82;22163;-77
2021/09/09 08:47:11;;;;;;;14.85;9.85;;;;;;;32.93;24.05;100837.73;1734520;82;21517;-76
2021/09/09 08:49:42;;;;;;;17.30;10.15;;;;;;;32.91;24.00;100837.06;1734065;82;21038;-77
2021/09/09 08:52:11;;;;;;;15.23;9.70;;;;;;;33.17;23.51;100826.56;1734715;82;21073;-77
2021/09/09 08:54:39;;;;;;;16.02;10.48;;;;;;;33.32;23.28;100833.93;1731850;82;21576;-78
2021/09/09 08:57:07;;;;;;;16.40;10.13;;;;;;;33.03;23.71;100826.02;1705475;84;21871;-78
2021/09/09 08:59:35;;;;;;;14.18;9.25;;;;;;;32.98;23.87;100828.47;1705234;84;20995;-78
2021/09/09 09:02:08;;;;;;;16.90;10.38;;;;;;;32.61;23.73;100830.19;1705166;84;21034;-77
2021/09/09 09:04:37;;;;;;;17.82;10.82;;;;;;;32.31;24.62;100825.12;1705103;84;21023;-76
2021/09/09 09:07:08;;;;;;;16.27;10.08;;;;;;;32.29;24.84;100826.66;1705753;84;21010;-79
2021/09/09 09:09:37;;;;;;;11.22;8.25;;;;;;;32.61;24.67;100828.83;1707955;84;21141;-79
2021/09/09 09:12:09;;;;;;;13.18;9.18;;;;;;;32.63;23.33;100828.66;1708024;84;21029;-77
2021/09/09 09:14:38;;;;;;;13.75;9.23;;;;;;;32.35;23.48;100824.58;1707190;83;20986;-78
2021/09/09 09:17:07;;;;;;;17.32;9.93;;;;;;;31.91;24.50;100822.48;1705556;84;21506;-76
2021/09/09 09:19:38;;;;;;;16.10;10.30;;;;;;;31.78;25.13;100822.21;1705159;84;21607;-77
2021/09/09 09:22:10;;;;;;;19.15;10.23;;;;;;;31.78;25.17;100820.84;1705195;84;21976;-79
2021/09/09 09:24:51;;;;;;;13.83;9.03;;;;;;;31.73;25.74;100821.91;1704984;84;21090;-77
2021/09/09 09:27:20;;;;;;;16.67;8.78;;;;;;;31.78;25.46;100811.31;1705221;84;24094;-79
2021/09/09 09:30:07;;;;;;;14.80;9.53;;;;;;;31.84;25.03;100820.14;1706508;83;21098;-78
2021/09/09 09:32:34;;;;;;;18.50;9.45;;;;;;;31.87;24.83;100818.41;1718877;83;21358;-78
2021/09/09 09:35:13;;;;;;;14.53;9.18;;;;;;;31.95;24.94;100810.17;1718776;83;21518;-77
2021/09/09 09:38:11;;;;;;;18.70;10.32;;;;;;;31.68;25.00;100806.10;1718283;83;21069;-78
2021/09/09 09:40:40;;;;;;;15.70;10.18;;;;;;;31.51;25.62;100803.95;1711187;83;21065;-77
2021/09/09 09:43:08;;;;;;;18.52;9.95;;;;;;;31.70;25.25;100811.35;1718208;83;21022;-77
2021/09/09 09:45:35;;;;;;;14.25;8.68;;;;;;;31.87;25.37;100806.68;1718584;83;21060;-79
2021/09/09 09:48:02;;;;;;;14.80;9.40;;;;;;;31.93;24.38;100806.81;1718767;83;21814;-77
2021/09/09 09:50:39;;;;;;;12.98;9.13;;;;;;;31.69;24.91;100798.78;1718533;83;21037;-77
2021/09/09 09:53:19;;;;;;;16.55;9.58;;;;;;;31.69;25.58;100798.78;1718759;83;21151;-77
2021/09/09 09:55:48;;;;;;;13.30;8.88;;;;;;;31.47;25.60;100793.11;1735636;82;21057;-76
2021/09/09 09:58:15;;;;;;;13.58;9.33;;;;;;;31.49;25.49;100798.36;1748620;82;21635;-77
2021/09/09 10:00:41;;;;;;;18.85;10.48;;;;;;;31.73;25.30;100790.07;1748631;82;21829;-78
2021/09/09 10:03:08;;;;;;;19.07;10.60;;;;;;;31.95;25.14;100785.66;1748552;82;21038;-78
2021/09/09 10:05:38;;;;;;;12.60;9.20;;;;;;;32.15;25.17;100783.86;1749073;82;21053;-78
2021/09/09 10:08:06;;;;;;;14.95;9.88;;;;;;;32.36;24.20;100789.99;1750732;82;21069;-78
2021/09/09 10:10:34;;;;;;;17.25;9.68;;;;;;;32.21;24.13;100793.17;1750753;82;21100;-78
2021/09/09 10:13:02;;;;;;;17.20;10.30;;;;;;;32.02;24.53;100784.98;1750829;82;20997;-78
2021/09/09 10:15:29;;;;;;;18.07;10.63;;;;;;;31.98;25.07;100782.63;1748679;82;21089;-79
2021/09/09 10:17:58;;;;;;;18.10;9.78;;;;;;;32.13;24.92;100777.75;1748602;81;21046;-78
2021/09/09 10:20:36;;;;;;;17.07;10.45;;;;;;;32.38;25.05;100774.30;1748357;82;21093;-76
2021/09/09 10:23:10;;;;;;;14.83;10.18;;;;;;;32.52;24.52;100780.86;1748581;82;21129;-77
2021/09/09 10:25:54;;;;;;;21.30;10.58;;;;;;;32.40;24.32;100777.17;1748436;82;21138;-77
2021/09/09 10:28:42;;;;;;;17.57;11.08;;;;;;;31.97;24.87;100778.71;1748614;82;21045;-77
2021/09/09 10:31:15;;;;;;;16.05;9.95;;;;;;;31.85;25.13;100774.69;1748312;81;21054;-77
2021/09/09 10:33:46;;;;;;;18.70;9.88;;;;;;;31.47;25.65;100767.74;1748170;82;20998;-77
2021/09/09 10:36:40;;;;;;;14.53;9.65;;;;;;;31.38;25.63;100761.97;1748438;82;21025;-77
2021/09/09 10:39:12;;;;;;;16.57;10.15;;;;;;;31.49;25.34;100759.73;1748716;82;21098;-78
2021/09/09 10:41:40;;;;;;;14.50;9.00;;;;;;;31.42;25.48;100751.11;1748565;82;21057;-76
2021/09/09 10:44:08;;;;;;;18.40;9.38;;;;;;;31.19;25.83;100754.58;1748155;82;21540;-78
2021/09/09 10:46:45;;;;;;;14.68;10.03;;;;;;;31.24;26.03;100762.20;1748005;82;21045;-79
2021/09/09 10:49:19;;;;;;;15.90;10.13;;;;;;;31.25;25.77;100766.64;1748419;82;21323;-78
2021/09/09 10:52:09;;;;;;;19.90;9.20;;;;;;;31.31;25.53;100755.03;1748645;82;21146;-78
2021/09/09 10:55:10;;;;;;;15.75;9.38;;;;;;;31.61;25.35;100752.53;1746425;82;21624;-79
2021/09/09 10:57:36;;;;;;;17.27;9.83;;;;;;;31.41;24.78;100754.87;1719002;83;27118;-78
2021/09/09 11:00:05;;;;;;;16.57;9.28;;;;;;;31.25;25.03;100748.95;1718627;83;21021;-77
2021/09/09 11:02:33;;;;;;;16.75;10.13;;;;;;;31.34;25.54;100742.45;1719474;83;22065;-76
2021/09/09 11:05:05;;;;;;;18.37;10.38;;;;;;;30.96;26.05;100746.84;1719419;83;21112;-78
2021/09/09 11:07:32;;;;;;;20.10;9.10;;;;;;;30.70;26.50;100744.67;1719687;83;21080;-79
2021/09/09 11:10:08;;;;;;;16.70;9.68;;;;;;;30.58;26.90;100740.62;1719751;83;21524;-78
2021/09/09 11:12:41;;;;;;;14.83;9.65;;;;;;;30.66;27.18;100739.23;1719812;83;21029;-77
2021/09/09 11:15:12;;;;;;;18.20;9.28;;;;;;;30.97;26.36;100730.36;1718911;83;21049;-77
2021/09/09 11:17:40;;;;;;;14.25;9.05;;;;;;;31.14;25.76;100736.06;1719007;83;21068;-78
2021/09/09 11:20:11;;;;;;;13.10;9.20;;;;;;;30.90;25.51;100728.02;1718674;83;21025;-77
2021/09/09 11:22:39;;;;;;;13.95;9.48;;;;;;;30.78;26.27;100728.00;1719075;83;21159;-78